Time;durP1;ratioP1;P1;durP2;ratioP2;P2;SDS_P1;SDS_P2;PMS_P1;PMS_P2;Temp;Humidity;BMP_temperature;BMP_pressure;BME280_temperature;BME280_humidity;BME280_pressure;Samples;Min_cycle;Max_cycle;Signal;HPM_P1;HPM_P2
2023/03/20 00:02:28;;;;;;;16.80;7.70;;;;;;;12.82;100.00;99814.44;4965298;28;20058;-81
2023/03/20 00:04:57;;;;;;;15.00;5.95;;;;;;;12.78;100.00;99804.06;4959862;28;20065;-79
2023/03/20 00:07:26;;;;;;;13.30;7.18;;;;;;;12.74;100.00;99802.28;4959994;28;20408;-80
2023/03/20 00:09:56;;;;;;;10.18;6.32;;;;;;;12.75;100.00;99811.81;4965543;28;20520;-81
2023/03/20 00:12:26;;;;;;;14.20;6.40;;;;;;;12.69;100.00;99808.31;4968254;28;20027;-86
2023/03/20 00:14:57;;;;;;;14.73;5.93;;;;;;;12.57;100.00;99799.63;4979375;28;20047;-90
2023/03/20 00:17:37;;;;;;;15.93;7.15;;;;;;;12.57;100.00;99803.91;4966554;28;20059;-87
2023/03/20 00:20:06;;;;;;;12.25;5.85;;;;;;;12.56;100.00;99789.22;4969157;28;20066;-83
2023/03/20 00:22:35;;;;;;;9.40;5.68;;;;;;;12.61;100.00;99805.69;4941458;28;20081;-83
2023/03/20 00:25:04;;;;;;;10.65;6.25;;;;;;;12.54;100.00;99791.78;4950901;29;20113;-86
2023/03/20 00:27:33;;;;;;;11.15;5.25;;;;;;;12.55;100.00;99803.03;4949473;29;20051;-86
2023/03/20 00:30:02;;;;;;;12.93;6.43;;;;;;;12.53;100.00;99797.00;4940123;29;20047;-79
2023/03/20 00:32:33;;;;;;;9.68;5.78;;;;;;;12.52;100.00;99803.03;4941294;29;20161;-83
2023/03/20 00:35:03;;;;;;;15.70;6.20;;;;;;;12.49;100.00;99795.22;4944714;29;20046;-85
2023/03/20 00:37:32;;;;;;;9.27;5.57;;;;;;;12.44;100.00;99795.19;4944086;29;20046;-80
2023/03/20 00:40:00;;;;;;;12.07;6.03;;;;;;;12.43;100.00;99796.03;4942078;29;20055;-80
2023/03/20 00:42:29;;;;;;;13.02;5.80;;;;;;;12.35;100.00;99782.16;4945372;29;20059;-85
2023/03/20 00:45:01;;;;;;;10.45;5.88;;;;;;;12.31;100.00;99794.25;4942686;29;20140;-85
2023/03/20 00:47:31;;;;;;;10.77;5.60;;;;;;;12.22;100.00;99785.53;4941155;29;20053;-81
2023/03/20 00:50:01;;;;;;;12.90;5.32;;;;;;;12.14;100.00;99782.88;4943691;29;20081;-80
2023/03/20 00:52:30;;;;;;;13.68;6.30;;;;;;;12.04;100.00;99781.06;4946136;29;20055;-80
2023/03/20 00:54:58;;;;;;;10.52;5.35;;;;;;;11.95;100.00;99785.31;4944786;28;20074;-82
2023/03/20 00:57:31;;;;;;;13.20;5.95;;;;;;;11.89;100.00;99772.31;4947083;29;20055;-78
2023/03/20 01:00:04;;;;;;;12.15;5.95;;;;;;;11.80;100.00;99759.25;4944747;29;20059;-81
2023/03/20 01:02:32;;;;;;;12.90;6.05;;;;;;;11.89;100.00;99771.47;4945776;29;20059;-85
2023/03/20 01:05:07;;;;;;;8.05;4.65;;;;;;;11.91;100.00;99775.78;4952900;29;20054;-83
2023/03/20 01:07:35;;;;;;;9.57;5.68;;;;;;;11.94;100.00;99764.59;4928421;29;20142;-79
2023/03/20 01:10:08;;;;;;;11.07;5.25;;;;;;;11.93;100.00;99762.81;4948744;28;20055;-85
2023/03/20 01:12:38;;;;;;;11.02;5.28;;;;;;;11.95;100.00;99769.75;4955205;29;20088;-84
2023/03/20 01:15:22;;;;;;;9.93;5.82;;;;;;;11.90;100.00;99768.84;4961482;29;20052;-83
2023/03/20 01:17:51;;;;;;;11.63;6.15;;;;;;;11.90;100.00;99762.81;4954267;29;20115;-84
2023/03/20 01:20:24;;;;;;;11.80;5.55;;;;;;;11.89;100.00;99761.09;4952474;28;20051;-79
2023/03/20 01:22:59;;;;;;;12.02;5.68;;;;;;;11.87;100.00;99761.06;4956875;28;20134;-79
2023/03/20 01:25:28;;;;;;;10.07;5.43;;;;;;;11.87;100.00;99755.88;4943570;29;20047;-79
2023/03/20 01:27:57;;;;;;;10.43;5.57;;;;;;;11.84;100.00;99750.66;4941900;28;20772;-81
2023/03/20 01:30:28;;;;;;;9.48;5.25;;;;;;;11.83;100.00;99761.84;4946714;28;21017;-81
2023/03/20 01:33:00;;;;;;;13.10;5.90;;;;;;;11.77;100.00;99754.03;4949650;29;20063;-79
2023/03/20 01:35:30;;;;;;;;;;;;;;;11.76;100.00;99748.84;4943659;29;20057;-78
2023/03/20 01:37:59;;;;;;;12.05;6.72;;;;;;;11.74;100.00;99751.41;4941561;28;19927;-78
2023/03/20 01:40:34;;;;;;;13.93;5.82;;;;;;;11.67;100.00;99749.63;4944077;28;20164;-78
2023/03/20 01:43:03;;;;;;;14.70;5.50;;;;;;;11.67;100.00;99749.63;4950255;28;20074;-81
2023/03/20 01:45:35;;;;;;;11.32;6.43;;;;;;;11.63;100.00;99742.66;4949320;29;20135;-80
2023/03/20 01:48:16;;;;;;;12.73;6.05;;;;;;;11.61;100.00;99741.78;4944534;28;20051;-80
2023/03/20 01:50:50;;;;;;;12.10;6.05;;;;;;;11.60;100.00;99742.66;4946330;29;20106;-81
2023/03/20 01:53:23;;;;;;;13.77;6.15;;;;;;;11.57;100.00;99743.50;4946352;29;20055;-76
2023/03/20 01:55:54;;;;;;;11.50;5.45;;;;;;;11.56;100.00;99736.56;4948444;29;20122;-76
2023/03/20 01:58:28;;;;;;;13.70;5.32;;;;;;;11.50;100.00;99737.38;4937582;29;20611;-76
2023/03/20 02:00:58;;;;;;;11.80;5.80;;;;;;;11.51;100.00;99740.84;4947262;28;20054;-76
2023/03/20 02:03:27;;;;;;;8.32;5.25;;;;;;;11.49;100.00;99739.97;4947534;29;20051;-77
2023/03/20 02:06:00;;;;;;;10.05;4.97;;;;;;;11.47;100.00;99737.34;4943082;28;20051;-77
2023/03/20 02:08:29;;;;;;;;;;;;;;;11.47;100.00;99732.16;4938413;29;20170;-78
2023/03/20 02:11:00;;;;;;;9.95;4.53;;;;;;;11.49;100.00;99730.47;4947169;29;19950;-82
2023/03/20 02:13:31;;;;;;;7.57;3.85;;;;;;;11.38;100.00;99719.13;4948350;29;20055;-83
2023/03/20 02:16:04;;;;;;;5.85;3.63;;;;;;;11.35;100.00;99716.50;4944053;29;20047;-85
2023/03/20 02:18:37;;;;;;;7.15;4.00;;;;;;;11.33;100.00;99713.03;4954368;29;20138;-83
2023/03/20 02:21:43;;;;;;;7.22;3.88;;;;;;;11.39;100.00;99720.88;4955976;28;20518;-82
2023/03/20 02:24:54;;;;;;;7.60;3.90;;;;;;;11.45;100.00;99720.94;4958621;29;20051;-82
2023/03/20 02:27:33;;;;;;;9.23;3.67;;;;;;;11.43;100.00;99724.34;4949821;29;20059;-83
2023/03/20 02:30:27;;;;;;;6.43;3.10;;;;;;;11.37;100.00;99709.63;4950343;29;20505;-84
2023/03/20 02:33:28;;;;;;;5.93;3.58;;;;;;;11.39;100.00;99722.59;4941945;29;20043;-87
2023/03/20 02:36:46;;;;;;;6.32;3.33;;;;;;;11.36;100.00;99725.16;4945778;29;20162;-84
2023/03/20 02:39:35;;;;;;;5.88;3.65;;;;;;;11.32;100.00;99719.09;4942869;29;20083;-85
2023/03/20 02:42:13;;;;;;;7.07;3.65;;;;;;;11.28;100.00;99714.72;4944798;29;20060;-83
2023/03/20 02:44:51;;;;;;;9.35;3.53;;;;;;;11.30;100.00;99718.19;4944299;29;20117;-81
2023/03/20 02:47:25;;;;;;;5.53;3.35;;;;;;;11.24;100.00;99705.19;4944146;29;20784;-84
2023/03/20 02:50:04;;;;;;;5.88;3.63;;;;;;;11.25;100.00;99718.16;4945216;29;20057;-85
2023/03/20 02:52:43;;;;;;;7.68;3.63;;;;;;;11.25;100.00;99714.69;4951035;29;20276;-85
2023/03/20 02:55:25;;;;;;;5.80;2.80;;;;;;;11.23;100.00;99717.25;4950661;29;20070;-80
2023/03/20 02:58:02;;;;;;;10.30;4.22;;;;;;;11.21;100.00;99718.09;4943167;29;20110;-81
2023/03/20 03:00:35;;;;;;;6.28;4.38;;;;;;;11.17;100.00;99706.84;4947690;29;20055;-83
2023/03/20 03:03:12;;;;;;;4.35;3.00;;;;;;;11.14;100.00;99721.50;4952150;29;20055;-81
2023/03/20 03:05:55;;;;;;;7.07;3.13;;;;;;;11.14;100.00;99716.31;4943260;29;20063;-82
2023/03/20 03:08:29;;;;;;;5.25;2.75;;;;;;;11.13;100.00;99724.91;4942634;29;20106;-82
2023/03/20 03:11:04;;;;;;;3.67;2.88;;;;;;;11.07;100.00;99713.66;4943881;29;20082;-85
2023/03/20 03:13:36;;;;;;;5.00;2.67;;;;;;;11.11;100.00;99727.50;4949791;29;20054;-80
2023/03/20 03:16:11;;;;;;;9.15;3.35;;;;;;;11.06;100.00;99723.97;4941251;29;20078;-78
2023/03/20 03:18:43;;;;;;;8.43;3.47;;;;;;;11.01;100.00;99716.16;4942217;29;20489;-80
2023/03/20 03:21:14;;;;;;;4.50;2.97;;;;;;;11.06;100.00;99723.97;4943870;28;20089;-79
2023/03/20 03:23:47;;;;;;;7.80;3.63;;;;;;;11.01;100.00;99710.13;4968271;28;20489;-81
2023/03/20 03:26:25;;;;;;;5.88;3.35;;;;;;;11.06;100.00;99727.47;4960247;28;20145;-82
2023/03/20 03:29:01;;;;;;;7.78;3.28;;;;;;;11.01;100.00;99713.56;4960353;28;20051;-81
2023/03/20 03:31:44;;;;;;;7.07;3.70;;;;;;;10.94;100.00;99698.81;4958468;28;20170;-79
2023/03/20 03:34:18;;;;;;;7.85;3.60;;;;;;;10.92;100.00;99694.50;4960568;28;20079;-80
2023/03/20 03:36:52;;;;;;;9.20;4.10;;;;;;;11.02;100.00;99711.88;4961828;28;20650;-83
2023/03/20 03:39:30;;;;;;;7.25;4.22;;;;;;;10.99;100.00;99707.50;4956314;28;20122;-81
2023/03/20 03:42:08;;;;;;;9.10;3.95;;;;;;;11.00;100.00;99708.41;4966465;28;20277;-82
2023/03/20 03:44:43;;;;;;;8.77;3.40;;;;;;;10.99;100.00;99709.22;4960481;28;20054;-85
2023/03/20 03:47:16;;;;;;;6.72;3.50;;;;;;;10.93;100.00;99699.69;4962478;28;20137;-83
2023/03/20 03:49:50;;;;;;;7.10;3.72;;;;;;;10.96;100.00;99712.66;4966701;28;20049;-85
2023/03/20 03:52:23;;;;;;;6.28;3.80;;;;;;;10.97;100.00;99704.06;4966571;28;20142;-82
2023/03/20 03:54:58;;;;;;;8.23;3.90;;;;;;;10.93;100.00;99704.00;4964347;28;20047;-86
2023/03/20 03:57:33;;;;;;;7.57;4.28;;;;;;;10.85;100.00;99702.19;4967629;28;20501;-84
2023/03/20 04:00:05;;;;;;;7.38;3.97;;;;;;;10.83;100.00;99706.47;4963002;28;20226;-86
2023/03/20 04:02:35;;;;;;;7.70;4.00;;;;;;;10.87;100.00;99708.25;4960314;28;20055;-79
2023/03/20 04:05:06;;;;;;;8.68;4.72;;;;;;;10.88;100.00;99715.16;4963796;28;20054;-80
2023/03/20 04:07:35;;;;;;;10.07;4.05;;;;;;;10.82;100.00;99704.75;4964348;28;20055;-80
2023/03/20 04:10:04;;;;;;;8.18;4.18;;;;;;;10.76;100.00;99706.38;4963350;28;20042;-77
2023/03/20 04:12:37;;;;;;;8.93;4.20;;;;;;;10.70;100.00;99694.25;4965008;28;20113;-80
2023/03/20 04:15:07;;;;;;;11.68;4.30;;;;;;;10.75;100.00;99702.06;4960095;28;20157;-80
2023/03/20 04:17:36;;;;;;;10.48;3.70;;;;;;;10.71;100.00;99695.13;4957895;28;20133;-83
2023/03/20 04:20:40;;;;;;;8.18;4.22;;;;;;;10.79;100.00;99707.31;4965140;28;20464;-82
2023/03/20 04:23:08;;;;;;;8.95;4.07;;;;;;;10.76;100.00;99691.72;4963282;28;20050;-81
2023/03/20 04:25:37;;;;;;;7.85;3.90;;;;;;;10.78;100.00;99707.28;4966288;28;20484;-81
2023/03/20 04:28:09;;;;;;;13.07;5.15;;;;;;;10.81;100.00;99696.94;4964453;28;20042;-80
2023/03/20 04:30:38;;;;;;;9.40;6.23;;;;;;;10.85;100.00;99716.84;4966041;28;20054;-80
2023/03/20 04:33:07;;;;;;;10.35;4.07;;;;;;;10.83;100.00;99695.25;4959160;28;20372;-77
2023/03/20 04:35:36;;;;;;;7.78;3.95;;;;;;;10.88;100.00;99706.50;4964109;28;20080;-77
2023/03/20 04:38:04;;;;;;;11.77;5.13;;;;;;;10.81;100.00;99708.19;4966280;28;20046;-79
2023/03/20 04:40:33;;;;;;;8.00;4.80;;;;;;;10.86;100.00;99706.53;4965632;28;20062;-77
2023/03/20 04:43:02;;;;;;;7.10;4.05;;;;;;;10.89;100.00;99700.50;4966556;28;20054;-80
2023/03/20 04:45:32;;;;;;;11.13;4.18;;;;;;;10.88;100.00;99697.06;4961357;28;20078;-80
2023/03/20 04:48:01;;;;;;;8.88;3.58;;;;;;;10.88;100.00;99693.56;4967467;28;20159;-81
2023/03/20 04:50:30;;;;;;;8.82;3.30;;;;;;;10.84;100.00;99684.06;4962861;28;20105;-80
2023/03/20 04:52:59;;;;;;;7.43;3.67;;;;;;;10.88;100.00;99685.81;4967699;28;20090;-79
2023/03/20 04:55:35;;;;;;;8.73;4.82;;;;;;;10.84;100.00;99681.47;4967665;28;20062;-82
2023/03/20 04:58:04;;;;;;;7.60;3.42;;;;;;;10.79;100.00;99683.13;4968662;28;20364;-83
2023/03/20 05:00:34;;;;;;;8.35;4.07;;;;;;;10.76;100.00;99680.50;4963936;28;20449;-84
2023/03/20 05:03:03;;;;;;;7.00;4.03;;;;;;;10.76;100.00;99683.09;4958634;28;20521;-83
2023/03/20 05:05:32;;;;;;;8.10;3.47;;;;;;;10.78;100.00;99681.41;4962983;28;20051;-82
2023/03/20 05:08:02;;;;;;;5.90;3.50;;;;;;;10.77;100.00;99682.25;4964185;28;20146;-81
2023/03/20 05:10:30;;;;;;;8.43;4.28;;;;;;;10.81;100.00;99686.59;4966401;28;20070;-80
2023/03/20 05:12:59;;;;;;;5.00;3.00;;;;;;;10.85;100.00;99702.19;4969192;28;20595;-81
2023/03/20 05:15:28;;;;;;;9.20;3.55;;;;;;;10.86;100.00;99716.00;4965072;28;20059;-80
2023/03/20 05:17:58;;;;;;;7.68;3.90;;;;;;;10.87;100.00;99709.97;4963160;28;20050;-77
2023/03/20 05:20:27;;;;;;;7.53;4.57;;;;;;;10.77;100.00;99693.47;4962247;28;20102;-77
2023/03/20 05:22:56;;;;;;;8.88;4.32;;;;;;;10.79;100.00;99709.88;4967914;28;20054;-77
2023/03/20 05:25:30;;;;;;;8.10;3.92;;;;;;;10.70;100.00;99707.19;4961811;28;20117;-79
2023/03/20 05:27:58;;;;;;;5.63;4.10;;;;;;;10.68;100.00;99709.75;4965207;28;20066;-78
2023/03/20 05:30:27;;;;;;;7.97;3.65;;;;;;;10.69;100.00;99716.66;4963641;28;20062;-79
2023/03/20 05:35:45;;;;;;;6.93;3.90;;;;;;;10.69;100.00;99718.38;4962315;28;20081;-81
2023/03/20 05:38:13;;;;;;;8.18;4.20;;;;;;;10.61;100.00;99700.19;4963905;28;20575;-80
2023/03/20 05:40:42;;;;;;;8.07;4.47;;;;;;;10.66;100.00;99719.22;4959536;28;20047;-84
2023/03/20 05:43:11;;;;;;;7.97;4.43;;;;;;;10.63;100.00;99706.25;4964654;28;20050;-81
2023/03/20 05:45:39;;;;;;;8.80;4.35;;;;;;;10.66;100.00;99711.44;4961799;28;20050;-81
2023/03/20 05:48:10;;;;;;;4.97;3.50;;;;;;;10.64;100.00;99713.13;4967130;28;20055;-79
2023/03/20 05:50:39;;;;;;;6.78;3.80;;;;;;;10.65;100.00;99712.31;4962093;28;20106;-80
2023/03/20 05:53:08;;;;;;;11.43;4.22;;;;;;;10.66;100.00;99719.22;4966716;28;20058;-80
2023/03/20 05:55:37;;;;;;;6.90;4.10;;;;;;;10.61;100.00;99707.94;4963342;28;20048;-80
2023/03/20 05:58:06;;;;;;;9.52;4.70;;;;;;;10.62;100.00;99712.25;4970019;28;20074;-80
2023/03/20 06:00:35;;;;;;;11.18;4.07;;;;;;;10.62;100.00;99709.66;4969113;28;20134;-79
2023/03/20 06:03:07;;;;;;;9.38;4.50;;;;;;;10.65;100.00;99706.25;4966477;28;20110;-79
2023/03/20 06:05:37;;;;;;;7.15;4.55;;;;;;;10.65;100.00;99707.13;4967342;28;20051;-79
2023/03/20 06:08:06;;;;;;;8.60;4.72;;;;;;;10.63;100.00;99707.97;4965274;28;20724;-79
2023/03/20 06:10:35;;;;;;;7.70;4.22;;;;;;;10.62;100.00;99707.06;4967194;28;20106;-79
2023/03/20 06:13:04;;;;;;;9.38;4.40;;;;;;;10.59;100.00;99707.06;4966972;28;20138;-79
2023/03/20 06:15:33;;;;;;;8.73;5.40;;;;;;;10.58;100.00;99712.19;4966850;28;20051;-79
2023/03/20 06:18:01;;;;;;;8.82;4.47;;;;;;;10.60;100.00;99718.25;4965060;28;20133;-80
2023/03/20 06:20:30;;;;;;;9.38;4.53;;;;;;;10.60;100.00;99711.34;4968300;28;20076;-79
2023/03/20 06:23:00;;;;;;;8.02;4.30;;;;;;;10.61;100.00;99707.09;4965075;28;20054;-80
2023/03/20 06:25:31;;;;;;;10.40;3.90;;;;;;;10.63;100.00;99714.00;4962818;28;20064;-80
2023/03/20 06:28:00;;;;;;;8.00;3.97;;;;;;;10.54;100.00;99700.09;4966560;28;20055;-79
2023/03/20 06:30:28;;;;;;;6.22;4.25;;;;;;;10.59;100.00;99714.81;4960956;28;20097;-79
2023/03/20 06:32:57;;;;;;;9.00;4.25;;;;;;;10.47;100.00;99702.59;4960271;28;20062;-79
2023/03/20 06:35:29;;;;;;;8.10;4.20;;;;;;;10.50;100.00;99712.09;4963001;28;20114;-79
2023/03/20 06:38:00;;;;;;;6.75;3.78;;;;;;;10.46;100.00;99708.59;4966877;28;20053;-80
2023/03/20 06:40:30;;;;;;;6.07;4.15;;;;;;;10.43;100.00;99702.53;4965950;28;20086;-80
2023/03/20 06:42:59;;;;;;;9.38;4.63;;;;;;;10.40;100.00;99713.72;4964815;28;20050;-81
2023/03/20 06:45:28;;;;;;;10.50;5.00;;;;;;;10.38;100.00;99714.53;4960754;28;20050;-79
2023/03/20 06:47:56;;;;;;;6.88;4.35;;;;;;;10.36;100.00;99713.66;4966000;28;20613;-78
2023/03/20 06:50:26;;;;;;;12.30;5.25;;;;;;;10.38;100.00;99711.97;4966487;28;20066;-79
2023/03/20 06:52:55;;;;;;;10.18;4.85;;;;;;;10.38;100.00;99717.13;4961633;28;20635;-78
2023/03/20 06:55:26;;;;;;;12.77;5.22;;;;;;;10.38;100.00;99711.97;4964038;28;20897;-80
2023/03/20 06:57:54;;;;;;;8.00;5.07;;;;;;;10.37;100.00;99718.81;4968315;28;20098;-79
2023/03/20 07:00:24;;;;;;;13.55;5.80;;;;;;;10.37;100.00;99716.22;4967070;28;20560;-79
2023/03/20 07:02:53;;;;;;;13.63;4.60;;;;;;;10.37;100.00;99720.53;4963765;28;20125;-79
2023/03/20 07:05:22;;;;;;;11.30;5.15;;;;;;;10.35;100.00;99717.06;4962103;28;20090;-78
2023/03/20 07:07:50;;;;;;;10.38;5.32;;;;;;;10.35;100.00;99719.66;4962943;28;20074;-78
2023/03/20 07:10:19;;;;;;;12.18;5.05;;;;;;;10.34;100.00;99716.19;4964483;28;20054;-78
2023/03/20 07:12:49;;;;;;;9.02;5.07;;;;;;;10.35;100.00;99717.06;4956330;28;20141;-79
2023/03/20 07:15:18;;;;;;;9.30;5.22;;;;;;;10.36;100.00;99716.22;4961635;28;20055;-78
2023/03/20 07:17:48;;;;;;;9.77;5.43;;;;;;;10.35;100.00;99720.50;4966007;28;20141;-80
2023/03/20 07:20:17;;;;;;;11.75;5.32;;;;;;;10.31;100.00;99721.34;4962980;28;20104;-79
2023/03/20 07:22:46;;;;;;;8.35;5.80;;;;;;;10.33;100.00;99726.50;4964308;28;20524;-79
2023/03/20 07:25:15;;;;;;;11.82;5.18;;;;;;;10.31;100.00;99715.28;4958878;28;20074;-81
2023/03/20 07:27:49;;;;;;;8.27;5.05;;;;;;;10.31;100.00;99725.63;4963353;28;20042;-79
2023/03/20 07:30:19;;;;;;;10.77;5.68;;;;;;;10.31;100.00;99721.34;4962355;28;20540;-79
2023/03/20 07:32:48;;;;;;;11.63;5.70;;;;;;;10.33;100.00;99723.94;4962039;28;20682;-79
2023/03/20 07:35:17;;;;;;;11.18;5.55;;;;;;;10.32;100.00;99727.38;4961400;28;20062;-80
2023/03/20 07:37:46;;;;;;;12.32;5.78;;;;;;;10.29;100.00;99717.00;4964738;28;20070;-79
2023/03/20 07:40:15;;;;;;;13.50;5.57;;;;;;;10.32;100.00;99725.66;4963429;28;20137;-79
2023/03/20 07:42:46;;;;;;;10.88;5.35;;;;;;;10.26;100.00;99718.66;4962954;28;20062;-79
2023/03/20 07:45:17;;;;;;;11.35;5.68;;;;;;;10.23;100.00;99716.00;4971626;28;20113;-78
2023/03/20 07:47:48;;;;;;;10.48;5.25;;;;;;;10.21;100.00;99712.53;4965539;28;20051;-79
2023/03/20 07:50:17;;;;;;;11.52;4.90;;;;;;;10.27;100.00;99719.53;4965571;28;20052;-79
2023/03/20 07:52:48;;;;;;;11.60;5.40;;;;;;;10.25;100.00;99724.66;4959750;28;20066;-79
2023/03/20 07:55:17;;;;;;;10.15;5.47;;;;;;;10.27;100.00;99728.13;4964369;28;20055;-79
2023/03/20 07:57:46;;;;;;;11.63;5.70;;;;;;;10.26;100.00;99720.34;4964032;28;20616;-79
2023/03/20 08:00:16;;;;;;;8.40;4.88;;;;;;;10.24;100.00;99725.53;4965273;28;20062;-79
2023/03/20 08:02:47;;;;;;;11.20;4.90;;;;;;;10.17;100.00;99713.38;4962117;28;20560;-79
2023/03/20 08:05:15;;;;;;;11.63;5.82;;;;;;;10.26;100.00;99731.59;4962561;28;20180;-78
2023/03/20 08:07:44;;;;;;;10.60;5.25;;;;;;;10.24;100.00;99728.09;4962435;28;20058;-78
2023/03/20 08:10:13;;;;;;;8.88;5.22;;;;;;;10.26;100.00;99729.00;4959064;28;20062;-78
2023/03/20 08:12:42;;;;;;;10.55;5.50;;;;;;;10.22;100.00;99721.19;4962560;28;20055;-78
2023/03/20 08:15:11;;;;;;;8.70;5.30;;;;;;;10.32;100.00;99737.72;4962345;28;20055;-80
2023/03/20 08:17:44;;;;;;;14.80;5.25;;;;;;;10.34;100.00;99733.44;4963764;28;20050;-80
2023/03/20 08:20:16;;;;;;;10.98;5.72;;;;;;;10.36;100.00;99734.34;4956176;28;20145;-81
2023/03/20 08:22:48;;;;;;;10.48;5.30;;;;;;;10.39;100.00;99734.38;4951916;28;20139;-79
2023/03/20 08:25:20;;;;;;;11.75;5.10;;;;;;;10.41;100.00;99730.09;4939923;28;20058;-79
2023/03/20 08:27:50;;;;;;;8.10;5.23;;;;;;;10.45;100.00;99739.63;4943889;29;20070;-79
2023/03/20 08:30:18;;;;;;;12.52;5.80;;;;;;;10.45;100.00;99729.28;4939709;29;20065;-80
2023/03/20 08:32:47;;;;;;;10.20;4.57;;;;;;;10.50;100.00;99734.53;4942167;29;20051;-78
2023/03/20 08:35:18;;;;;;;14.15;5.15;;;;;;;10.52;100.00;99738.00;4941956;28;20175;-78
2023/03/20 08:37:46;;;;;;;9.45;5.03;;;;;;;10.53;100.00;99735.41;4942872;29;20048;-78
2023/03/20 08:40:16;;;;;;;11.68;5.97;;;;;;;10.56;100.00;99737.16;4943853;29;20055;-78
2023/03/20 08:42:45;;;;;;;8.90;5.60;;;;;;;10.56;100.00;99730.31;4942373;28;20124;-78
2023/03/20 08:45:15;;;;;;;11.18;5.30;;;;;;;10.52;100.00;99733.69;4942952;28;20051;-77
2023/03/20 08:47:45;;;;;;;11.68;5.20;;;;;;;10.50;100.00;99737.97;4941735;28;20076;-80
2023/03/20 08:50:14;;;;;;;12.27;6.03;;;;;;;10.50;100.00;99737.97;4943871;28;20057;-78
2023/03/20 08:52:45;;;;;;;14.85;5.88;;;;;;;10.48;100.00;99735.34;4938978;29;20059;-82
2023/03/20 08:55:15;;;;;;;9.43;5.30;;;;;;;10.47;100.00;99738.81;4944288;28;20062;-79
2023/03/20 08:57:44;;;;;;;9.10;4.43;;;;;;;10.44;100.00;99740.47;4941237;29;20051;-78
2023/03/20 09:00:15;;;;;;;8.55;4.88;;;;;;;10.40;100.00;99736.97;4943721;29;20127;-79
2023/03/20 09:02:45;;;;;;;10.88;5.68;;;;;;;10.36;100.00;99739.50;4941595;28;20063;-79
2023/03/20 09:05:14;;;;;;;10.40;4.82;;;;;;;10.36;100.00;99739.50;4942964;29;20147;-78
2023/03/20 09:07:44;;;;;;;7.93;4.25;;;;;;;10.29;100.00;99727.34;4944479;28;20051;-78
2023/03/20 09:10:13;;;;;;;9.55;4.60;;;;;;;10.30;100.00;99732.50;4939049;29;20123;-78
2023/03/20 09:12:42;;;;;;;12.23;5.70;;;;;;;10.34;100.00;99739.47;4942197;28;20054;-78
2023/03/20 09:15:11;;;;;;;7.78;4.15;;;;;;;10.34;100.00;99742.06;4939406;29;20055;-78
2023/03/20 09:17:40;;;;;;;7.57;4.40;;;;;;;10.36;100.00;99740.38;4942175;29;20048;-78
2023/03/20 09:20:12;;;;;;;8.63;4.32;;;;;;;10.40;100.00;99747.31;4943289;28;20059;-77
2023/03/20 09:22:42;;;;;;;10.40;5.18;;;;;;;10.42;100.00;99747.31;4956291;28;20072;-78
2023/03/20 09:25:13;;;;;;;8.27;4.85;;;;;;;10.45;100.00;99752.56;4958015;28;20166;-77
2023/03/20 09:27:42;;;;;;;7.93;4.65;;;;;;;10.47;100.00;99754.31;4961915;28;20563;-78
2023/03/20 09:30:12;;;;;;;7.97;4.50;;;;;;;10.47;100.00;99750.88;4958041;28;20051;-77
2023/03/20 09:32:41;;;;;;;9.23;4.78;;;;;;;10.51;100.00;99754.34;4965197;28;20527;-79
2023/03/20 09:35:10;;;;;;;8.88;4.88;;;;;;;10.49;100.00;99746.59;4964589;28;20046;-78
2023/03/20 09:37:39;;;;;;;7.78;4.45;;;;;;;10.46;100.00;99733.59;4965425;28;20047;-78
2023/03/20 09:40:09;;;;;;;9.38;4.60;;;;;;;10.49;100.00;99746.59;4967863;28;20114;-78
2023/03/20 09:42:48;;;;;;;8.38;4.28;;;;;;;10.50;100.00;99747.44;4969320;28;20043;-77
2023/03/20 09:45:28;;;;;;;9.50;4.85;;;;;;;10.45;100.00;99740.50;4965375;28;20567;-77
2023/03/20 09:48:05;;;;;;;8.73;3.95;;;;;;;10.41;100.00;99738.72;4964436;28;20054;-78
2023/03/20 09:50:38;;;;;;;7.68;4.65;;;;;;;10.36;100.00;99734.34;4970101;28;20057;-77
2023/03/20 09:53:13;;;;;;;9.77;4.70;;;;;;;10.26;100.00;99725.53;4965033;28;20563;-77
2023/03/20 09:55:44;;;;;;;10.52;5.03;;;;;;;10.12;100.00;99714.97;4967093;28;20051;-78
2023/03/20 09:58:21;;;;;;;10.77;3.95;;;;;;;10.19;100.00;99723.69;4962843;28;20069;-78
2023/03/20 10:00:50;;;;;;;6.88;3.75;;;;;;;10.13;100.00;99727.09;4963700;28;20057;-80
2023/03/20 10:03:23;;;;;;;6.28;4.22;;;;;;;10.11;100.00;99721.00;4967501;28;20051;-78
2023/03/20 10:06:00;;;;;;;8.27;4.00;;;;;;;10.09;100.00;99725.28;4968158;28;20474;-78
2023/03/20 10:08:33;;;;;;;6.53;3.42;;;;;;;10.04;100.00;99726.94;4959474;28;20043;-77
2023/03/20 10:11:17;;;;;;;5.07;3.28;;;;;;;10.06;100.00;99736.47;4963815;28;20158;-79
2023/03/20 10:14:06;;;;;;;5.28;2.67;;;;;;;10.01;100.00;99747.56;4963129;28;20098;-79
2023/03/20 10:16:48;;;;;;;8.07;2.80;;;;;;;9.95;100.00;99743.16;4963304;28;20063;-78
2023/03/20 10:19:25;;;;;;;2.40;1.85;;;;;;;9.94;100.00;99745.72;4962821;28;20129;-78
2023/03/20 10:22:01;;;;;;;3.38;1.90;;;;;;;9.90;100.00;99737.06;4967218;28;20055;-79
2023/03/20 10:24:33;;;;;;;3.67;1.90;;;;;;;9.97;100.00;99754.41;4962868;28;20504;-78
2023/03/20 10:27:18;;;;;;;2.30;1.90;;;;;;;9.86;100.00;99741.31;4966771;28;20664;-77
2023/03/20 10:29:58;;;;;;;2.85;1.65;;;;;;;9.93;100.00;99750.03;4959172;28;20057;-79
2023/03/20 10:32:36;;;;;;;3.47;1.85;;;;;;;9.91;100.00;99753.44;4967579;28;20457;-77
2023/03/20 10:35:29;;;;;;;3.30;1.45;;;;;;;9.88;100.00;99750.81;4963408;28;20055;-79
2023/03/20 10:38:05;;;;;;;;;;;;;;;9.84;100.00;99760.22;4962678;28;20661;-78
2023/03/20 10:40:37;;;;;;;1.83;1.23;;;;;;;9.80;100.00;99759.31;4962929;28;19922;-78
2023/03/20 10:43:15;;;;;;;1.83;1.43;;;;;;;9.75;100.00;99745.44;4964517;28;20132;-77
2023/03/20 10:45:48;;;;;;;3.30;1.58;;;;;;;9.85;100.00;99765.41;4967341;28;20043;-77
2023/03/20 10:48:25;;;;;;;2.92;1.38;;;;;;;9.86;100.00;99763.69;4961017;28;20043;-77
2023/03/20 10:50:57;;;;;;;3.47;1.33;;;;;;;9.84;100.00;99766.25;4962739;28;20066;-79
2023/03/20 10:53:32;;;;;;;1.50;1.08;;;;;;;9.84;100.00;99770.56;4957621;28;20068;-78
2023/03/20 10:56:05;;;;;;;2.05;1.15;;;;;;;9.82;100.00;99773.09;4962729;28;20055;-78
2023/03/20 10:58:40;;;;;;;2.47;1.25;;;;;;;9.84;100.00;99770.56;4961676;28;20062;-79
2023/03/20 11:01:10;;;;;;;2.42;1.88;;;;;;;9.88;100.00;99781.81;4966329;28;20082;-79
2023/03/20 11:03:40;;;;;;;2.30;1.10;;;;;;;9.78;100.00;99776.50;4960102;28;20062;-79
2023/03/20 11:06:17;;;;;;;1.60;0.80;;;;;;;9.75;100.00;99781.59;4964616;28;20050;-78
2023/03/20 11:08:50;;;;;;;1.73;0.88;;;;;;;9.71;100.00;99778.94;4958067;28;20047;-78
2023/03/20 11:11:24;;;;;;;1.00;0.80;;;;;;;9.68;100.00;99772.00;4962496;28;20062;-78
2023/03/20 11:13:53;;;;;;;1.40;1.08;;;;;;;9.68;100.00;99774.59;4965020;28;20047;-79
2023/03/20 11:16:26;;;;;;;1.33;0.90;;;;;;;9.66;100.00;99781.44;4958690;28;20070;-78
2023/03/20 11:18:54;;;;;;;2.67;0.93;;;;;;;9.61;100.00;99778.78;4960443;28;20073;-78
2023/03/20 11:21:26;;;;;;;2.33;1.35;;;;;;;9.54;100.00;99776.06;4964129;28;20051;-78
2023/03/20 11:23:56;;;;;;;1.10;0.65;;;;;;;9.54;100.00;99778.66;4965904;28;20954;-78
2023/03/20 11:26:37;;;;;;;0.70;0.57;;;;;;;9.50;100.00;99784.59;4961395;28;20043;-78
2023/03/20 11:29:10;;;;;;;0.80;0.60;;;;;;;9.47;100.00;99784.53;4958770;28;20051;-77
2023/03/20 11:31:42;;;;;;;0.73;0.38;;;;;;;9.38;100.00;99790.41;4964789;28;20066;-79
2023/03/20 11:34:25;;;;;;;0.98;0.55;;;;;;;9.32;100.00;99791.16;4964205;28;20059;-78
2023/03/20 11:36:58;;;;;;;3.13;0.55;;;;;;;9.29;100.00;99791.09;4964984;28;20452;-78
2023/03/20 11:39:28;;;;;;;0.52;0.43;;;;;;;9.29;100.00;99796.25;4963713;28;20102;-76
2023/03/20 11:41:58;;;;;;;1.60;0.50;;;;;;;9.29;100.00;99796.25;4965408;28;20472;-77
2023/03/20 11:44:28;;;;;;;1.52;0.60;;;;;;;9.31;100.00;99794.56;4962535;28;20144;-77
2023/03/20 11:47:02;;;;;;;1.10;0.52;;;;;;;9.32;100.00;99796.34;4963525;28;20055;-77
2023/03/20 11:49:32;;;;;;;0.47;0.30;;;;;;;9.31;100.00;99796.28;4962640;28;20548;-76
2023/03/20 11:52:15;;;;;;;0.80;0.40;;;;;;;9.32;100.00;99798.03;4962509;28;20062;-77